Time;durP1;ratioP1;P1;durP2;ratioP2;P2;SDS_P1;SDS_P2;PMS_P1;PMS_P2;Temp;Humidity;BMP_temperature;BMP_pressure;BME280_temperature;BME280_humidity;BME280_pressure;Samples;Min_cycle;Max_cycle;Signal;HPM_P1;HPM_P2
2023/06/11 00:01:16;;;;;;;3.00;2.80;;;20.00;75.70;;;;;;5116385;27;21225;-76
2023/06/11 00:03:43;;;;;;;3.90;3.17;;;20.00;75.60;;;;;;5120980;27;20665;-77
2023/06/11 00:06:11;;;;;;;4.30;3.77;;;20.00;76.10;;;;;;5115572;27;20664;-77
2023/06/11 00:08:38;;;;;;;5.00;3.90;;;20.10;75.80;;;;;;5106554;27;20620;-76
2023/06/11 00:11:05;;;;;;;4.30;3.20;;;20.00;76.00;;;;;;5112213;27;20659;-77
2023/06/11 00:13:32;;;;;;;3.33;2.80;;;20.00;76.40;;;;;;5110599;27;20612;-77
2023/06/11 00:15:59;;;;;;;4.23;3.30;;;19.80;77.40;;;;;;5116524;27;21232;-77
2023/06/11 00:18:26;;;;;;;3.30;3.00;;;19.70;77.70;;;;;;5121620;27;20684;-76
2023/06/11 00:20:52;;;;;;;3.20;2.90;;;19.70;78.30;;;;;;5112846;27;20666;-76
2023/06/11 00:23:21;;;;;;;4.13;3.83;;;19.70;77.60;;;;;;5103980;27;20660;-76
2023/06/11 00:25:47;;;;;;;4.83;3.30;;;19.80;78.20;;;;;;5116467;27;21161;-76
2023/06/11 00:28:14;;;;;;;4.07;3.20;;;19.80;78.20;;;;;;5119016;27;20619;-77
2023/06/11 00:30:41;;;;;;;3.43;2.80;;;19.70;78.20;;;;;;5105686;27;20664;-77
2023/06/11 00:33:08;;;;;;;3.50;2.93;;;19.60;79.10;;;;;;5108182;27;21194;-77
2023/06/11 00:35:34;;;;;;;3.80;3.20;;;19.50;79.30;;;;;;5109912;27;20762;-77
2023/06/11 00:38:02;;;;;;;3.70;3.40;;;19.60;79.40;;;;;;5114901;27;20980;-76
2023/06/11 00:40:30;;;;;;;3.40;3.10;;;19.70;79.00;;;;;;5113465;27;20648;-77
2023/06/11 00:42:57;;;;;;;5.63;3.87;;;19.60;79.50;;;;;;5119120;27;20660;-76
2023/06/11 00:45:27;;;;;;;3.50;2.90;;;19.60;79.90;;;;;;5111679;27;20652;-77
2023/06/11 00:47:53;;;;;;;3.97;3.57;;;19.60;80.30;;;;;;5104732;27;20615;-76
2023/06/11 00:50:21;;;;;;;3.30;3.00;;;19.60;80.40;;;;;;5114355;27;21204;-76
2023/06/11 00:52:48;;;;;;;4.97;3.67;;;19.60;80.50;;;;;;5114032;27;20939;-76
2023/06/11 00:55:16;;;;;;;4.90;3.77;;;19.60;81.20;;;;;;5115985;27;20633;-77
2023/06/11 00:57:44;;;;;;;3.80;3.50;;;19.60;81.40;;;;;;5111192;27;20767;-77
2023/06/11 01:00:13;;;;;;;3.77;3.40;;;19.50;81.70;;;;;;5113064;27;20647;-77
2023/06/11 01:02:44;;;;;;;4.10;3.63;;;19.40;82.40;;;;;;5098053;27;20664;-77
2023/06/11 01:05:17;;;;;;;3.80;3.27;;;19.40;82.50;;;;;;5111130;27;20672;-77
2023/06/11 01:07:50;;;;;;;2.70;2.50;;;19.20;83.10;;;;;;5105343;27;20949;-77
2023/06/11 01:10:18;;;;;;;3.67;3.30;;;19.30;83.70;;;;;;5095074;27;20623;-77
2023/06/11 01:12:47;;;;;;;4.83;3.10;;;19.30;83.50;;;;;;5118533;27;20700;-77
2023/06/11 01:15:15;;;;;;;3.80;3.43;;;19.20;84.30;;;;;;5113159;27;20663;-77
2023/06/11 01:17:52;;;;;;;5.27;4.03;;;19.20;83.90;;;;;;5109684;27;21216;-77
2023/06/11 01:20:25;;;;;;;4.23;3.83;;;19.20;84.90;;;;;;5121696;27;20831;-77
2023/06/11 01:23:17;;;;;;;3.90;2.77;;;19.20;84.90;;;;;;5110304;27;20651;-77
2023/06/11 01:25:54;;;;;;;4.53;3.40;;;19.10;85.20;;;;;;5110221;27;20647;-77
2023/06/11 01:28:27;;;;;;;4.03;3.43;;;19.10;85.50;;;;;;5107472;27;21123;-77
2023/06/11 01:30:57;;;;;;;3.60;3.00;;;19.10;85.80;;;;;;5110388;27;20648;-77
2023/06/11 01:33:26;;;;;;;3.83;3.00;;;19.20;85.60;;;;;;5115919;27;21559;-77
2023/06/11 01:35:57;;;;;;;4.60;3.60;;;19.10;86.30;;;;;;5115297;27;20666;-76
2023/06/11 01:38:25;;;;;;;4.40;3.87;;;19.10;86.20;;;;;;5112684;27;20716;-77
2023/06/11 01:40:55;;;;;;;4.00;3.63;;;19.10;86.90;;;;;;5109274;27;20649;-77
2023/06/11 01:43:25;;;;;;;4.60;4.00;;;18.90;87.90;;;;;;5107351;28;20621;-77
2023/06/11 01:45:53;;;;;;;6.53;3.60;;;18.80;88.20;;;;;;5095017;27;20646;-76
2023/06/11 01:48:21;;;;;;;4.20;3.33;;;18.70;88.60;;;;;;5110303;27;20639;-77
2023/06/11 01:50:49;;;;;;;4.90;3.53;;;18.60;89.50;;;;;;5110444;28;20688;-76
2023/06/11 01:53:16;;;;;;;3.63;3.33;;;18.40;90.40;;;;;;5116437;27;20647;-77
2023/06/11 01:55:43;;;;;;;4.23;3.67;;;18.30;90.60;;;;;;5120378;27;20648;-77
2023/06/11 01:58:12;;;;;;;4.63;3.53;;;18.30;91.20;;;;;;5119435;27;20634;-77
2023/06/11 02:00:41;;;;;;;4.03;3.20;;;18.10;91.90;;;;;;5118674;27;20672;-76
2023/06/11 02:03:08;;;;;;;3.43;3.10;;;18.10;91.90;;;;;;5119065;27;20680;-76
2023/06/11 02:05:36;;;;;;;4.20;3.50;;;18.10;92.00;;;;;;5109378;27;20760;-77
2023/06/11 02:08:04;;;;;;;4.47;3.70;;;18.10;92.20;;;;;;5115307;27;20628;-76
2023/06/11 02:10:31;;;;;;;3.80;3.40;;;18.10;92.20;;;;;;5121034;27;20645;-77
2023/06/11 02:12:58;;;;;;;3.53;2.93;;;18.00;92.60;;;;;;5113385;27;21270;-77
2023/06/11 02:15:25;;;;;;;3.40;3.07;;;18.10;92.40;;;;;;5125979;27;20997;-77
2023/06/11 02:17:53;;;;;;;4.40;3.17;;;18.20;92.50;;;;;;5114979;27;20682;-76
2023/06/11 02:20:20;;;;;;;4.10;3.70;;;18.20;92.40;;;;;;5123292;27;20626;-77
2023/06/11 02:22:47;;;;;;;4.40;3.80;;;18.30;92.10;;;;;;5117276;27;20630;-76
2023/06/11 02:25:14;;;;;;;3.70;3.17;;;18.30;92.10;;;;;;5124469;27;20637;-77
2023/06/11 02:27:40;;;;;;;3.30;3.00;;;18.20;92.10;;;;;;5118343;27;20623;-76
2023/06/11 02:30:08;;;;;;;3.53;3.17;;;18.20;91.90;;;;;;5105483;27;20632;-76
2023/06/11 02:32:35;;;;;;;3.70;2.60;;;18.30;92.10;;;;;;5114409;27;20619;-77
2023/06/11 02:35:03;;;;;;;4.87;3.53;;;18.20;92.30;;;;;;5113880;27;20648;-77
2023/06/11 02:37:31;;;;;;;2.60;2.40;;;18.10;92.30;;;;;;5113521;27;20629;-77
2023/06/11 02:39:59;;;;;;;3.03;2.73;;;18.20;92.20;;;;;;5114969;27;20669;-76
2023/06/11 02:42:27;;;;;;;3.13;2.83;;;18.40;91.80;;;;;;5114927;27;20767;-76
2023/06/11 02:44:55;;;;;;;3.07;2.77;;;18.30;91.90;;;;;;5126116;27;20736;-77
2023/06/11 02:47:23;;;;;;;3.27;2.87;;;18.30;91.80;;;;;;5123873;27;21008;-76
2023/06/11 02:49:51;;;;;;;3.47;2.93;;;18.20;92.10;;;;;;5117894;27;20989;-76
2023/06/11 02:52:21;;;;;;;2.97;2.67;;;18.10;92.30;;;;;;5120319;27;21202;-77
2023/06/11 02:54:48;;;;;;;4.90;3.30;;;18.00;92.50;;;;;;5124466;27;20666;-76
2023/06/11 02:57:16;;;;;;;3.03;2.70;;;17.90;92.60;;;;;;5125811;27;20669;-77
2023/06/11 02:59:44;;;;;;;4.80;3.70;;;18.00;92.60;;;;;;5118140;27;20726;-77
2023/06/11 03:02:11;;;;;;;3.10;2.80;;;17.90;92.80;;;;;;5110257;27;20660;-76
2023/06/11 03:04:39;;;;;;;3.83;3.20;;;17.90;92.60;;;;;;5124011;27;20649;-76
2023/06/11 03:07:07;;;;;;;2.93;2.70;;;17.90;92.80;;;;;;5119583;27;20658;-76
2023/06/11 03:09:35;;;;;;;3.27;2.53;;;17.90;92.80;;;;;;5112303;27;20692;-77
2023/06/11 03:12:02;;;;;;;4.77;4.30;;;17.90;92.80;;;;;;5120469;27;21076;-77
2023/06/11 03:14:30;;;;;;;3.73;3.37;;;17.90;92.70;;;;;;5115366;27;20755;-76
2023/06/11 03:16:57;;;;;;;3.50;2.90;;;17.90;93.10;;;;;;5122016;27;20656;-77
2023/06/11 03:19:24;;;;;;;4.10;2.80;;;17.80;92.90;;;;;;5118814;27;20612;-76
2023/06/11 03:21:51;;;;;;;3.20;2.67;;;17.70;93.10;;;;;;5108517;27;20989;-76
2023/06/11 03:24:17;;;;;;;4.03;2.77;;;17.80;93.00;;;;;;5112131;27;20715;-77
2023/06/11 03:26:46;;;;;;;3.77;2.80;;;17.90;92.90;;;;;;5119298;27;20664;-77
2023/06/11 03:29:12;;;;;;;3.30;2.90;;;18.00;92.80;;;;;;5114333;27;20759;-77
2023/06/11 03:31:40;;;;;;;2.77;2.53;;;18.00;92.40;;;;;;5120467;27;21038;-77
2023/06/11 03:34:07;;;;;;;2.63;2.43;;;18.00;92.40;;;;;;5119998;27;20661;-77
2023/06/11 03:36:34;;;;;;;4.17;3.77;;;18.00;92.20;;;;;;5116216;27;20758;-77
2023/06/11 03:39:02;;;;;;;6.20;3.13;;;18.00;92.10;;;;;;5118070;27;20611;-77
2023/06/11 03:41:30;;;;;;;3.00;2.80;;;18.10;92.00;;;;;;5110771;27;21093;-77
2023/06/11 03:43:59;;;;;;;3.27;2.90;;;18.00;92.30;;;;;;5111231;27;20624;-77
2023/06/11 03:46:26;;;;;;;4.17;3.27;;;17.90;92.40;;;;;;5109421;28;20926;-77
2023/06/11 03:48:53;;;;;;;3.30;2.50;;;17.80;92.80;;;;;;5119551;27;21022;-77
2023/06/11 03:51:20;;;;;;;3.23;2.70;;;17.80;92.70;;;;;;5100627;27;20702;-77
2023/06/11 03:53:47;;;;;;;3.93;2.90;;;17.80;92.60;;;;;;5116390;27;20660;-77
2023/06/11 03:56:14;;;;;;;3.93;2.80;;;17.90;92.60;;;;;;5114887;27;20647;-77
2023/06/11 03:58:41;;;;;;;4.50;2.97;;;17.90;92.40;;;;;;5114689;27;21026;-77
2023/06/11 04:01:09;;;;;;;2.53;2.37;;;18.00;92.40;;;;;;5115514;27;21276;-78
2023/06/11 04:03:36;;;;;;;4.73;3.10;;;18.10;92.30;;;;;;5113758;27;21196;-77
2023/06/11 04:06:03;;;;;;;3.77;3.13;;;18.00;92.30;;;;;;5118803;27;20656;-77
2023/06/11 04:08:29;;;;;;;2.87;2.53;;;18.00;92.30;;;;;;5121100;27;20626;-77
2023/06/11 04:10:56;;;;;;;3.50;3.20;;;18.10;92.20;;;;;;5112749;27;20651;-77
2023/06/11 04:13:23;;;;;;;3.57;3.27;;;18.10;92.00;;;;;;5120381;27;21002;-77
2023/06/11 04:15:50;;;;;;;3.57;3.27;;;18.00;92.10;;;;;;5114935;27;21214;-77
2023/06/11 04:18:18;;;;;;;5.60;3.40;;;18.20;92.60;;;;;;5111820;27;21174;-77
2023/06/11 04:20:45;;;;;;;4.17;3.57;;;18.30;92.20;;;;;;5114965;27;21003;-77
2023/06/11 04:23:11;;;;;;;3.33;3.03;;;18.30;91.90;;;;;;5118337;27;20631;-77
2023/06/11 04:25:39;;;;;;;3.73;3.43;;;18.40;91.80;;;;;;5115689;27;20645;-77
2023/06/11 04:28:08;;;;;;;3.87;3.40;;;18.40;91.90;;;;;;5109756;27;21189;-77
2023/06/11 04:30:36;;;;;;;5.13;3.40;;;18.40;91.90;;;;;;5115148;27;20666;-77
2023/06/11 04:33:04;;;;;;;3.73;3.27;;;18.50;91.60;;;;;;5116763;27;20626;-77
2023/06/11 04:35:34;;;;;;;5.30;3.50;;;18.50;91.80;;;;;;5112422;27;20651;-78
2023/06/11 04:38:02;;;;;;;3.00;2.63;;;18.50;91.60;;;;;;5111965;27;20624;-77
2023/06/11 04:40:30;;;;;;;3.53;2.90;;;18.50;91.70;;;;;;5116801;27;21260;-77
2023/06/11 04:42:57;;;;;;;2.73;2.50;;;18.60;91.40;;;;;;5117836;27;20667;-77
2023/06/11 04:45:26;;;;;;;2.33;2.13;;;18.60;91.40;;;;;;5107976;27;20659;-77
2023/06/11 04:47:53;;;;;;;4.30;3.50;;;18.70;91.60;;;;;;5112200;27;20681;-77
2023/06/11 04:50:21;;;;;;;3.87;3.47;;;18.70;91.40;;;;;;5119295;27;21199;-76
2023/06/11 04:52:52;;;;;;;3.73;3.27;;;18.70;91.60;;;;;;5112822;27;20630;-77
2023/06/11 04:55:21;;;;;;;3.20;2.90;;;18.90;91.30;;;;;;5109859;27;20698;-76
2023/06/11 04:57:49;;;;;;;3.17;2.87;;;18.80;91.20;;;;;;5117949;27;20624;-76
2023/06/11 05:00:17;;;;;;;3.50;3.20;;;18.90;91.40;;;;;;5118839;27;20697;-77
2023/06/11 05:02:44;;;;;;;4.07;3.07;;;18.90;91.20;;;;;;5115244;27;21030;-77
2023/06/11 05:05:11;;;;;;;4.23;3.93;;;19.00;91.20;;;;;;5113468;27;20621;-77
2023/06/11 05:07:39;;;;;;;4.40;4.10;;;19.10;91.20;;;;;;5116450;27;21276;-77
2023/06/11 05:10:08;;;;;;;3.87;3.43;;;19.10;90.80;;;;;;5112481;27;21047;-76
2023/06/11 05:12:35;;;;;;;3.30;2.97;;;19.00;91.10;;;;;;5115958;27;21161;-77
2023/06/11 05:15:02;;;;;;;3.83;3.30;;;19.10;91.00;;;;;;5120132;27;20754;-76
2023/06/11 05:17:29;;;;;;;3.90;3.50;;;19.10;90.70;;;;;;5097778;27;20739;-77
2023/06/11 05:19:55;;;;;;;2.90;2.63;;;19.20;90.80;;;;;;5104776;27;21138;-76
2023/06/11 05:22:23;;;;;;;3.73;2.80;;;19.20;90.60;;;;;;5110342;27;20643;-77
2023/06/11 05:24:49;;;;;;;3.97;3.57;;;19.20;90.80;;;;;;5111377;27;20679;-76
2023/06/11 05:27:18;;;;;;;3.70;3.40;;;19.30;90.50;;;;;;5115584;27;20675;-77
2023/06/11 05:29:45;;;;;;;5.73;3.80;;;19.40;90.60;;;;;;5110741;27;20716;-77
2023/06/11 05:32:14;;;;;;;4.30;2.90;;;19.40;90.40;;;;;;5116141;27;21060;-77
2023/06/11 05:34:41;;;;;;;3.53;3.20;;;19.60;90.60;;;;;;5103910;27;20671;-76
2023/06/11 05:37:08;;;;;;;3.50;3.23;;;19.60;90.00;;;;;;5119584;27;20644;-76
2023/06/11 05:39:35;;;;;;;3.57;3.17;;;19.70;90.20;;;;;;5116141;27;20998;-76
2023/06/11 05:42:01;;;;;;;4.10;3.03;;;19.50;89.70;;;;;;5104251;27;20655;-77
2023/06/11 05:44:30;;;;;;;3.10;2.80;;;19.70;90.10;;;;;;5104442;27;20953;-77
2023/06/11 05:46:57;;;;;;;4.40;3.90;;;19.70;90.00;;;;;;5114223;28;20644;-77
2023/06/11 05:49:23;;;;;;;4.97;3.37;;;19.80;89.90;;;;;;5115647;27;20730;-77
2023/06/11 05:51:50;;;;;;;4.53;3.17;;;19.90;89.80;;;;;;5115293;28;20663;-77
2023/06/11 05:54:17;;;;;;;5.60;3.97;;;19.90;89.80;;;;;;5114889;28;21267;-77
2023/06/11 05:56:44;;;;;;;4.10;3.70;;;20.00;90.10;;;;;;5115782;28;20659;-79
2023/06/11 05:59:11;;;;;;;3.73;3.40;;;20.00;90.00;;;;;;5112117;27;21206;-78
2023/06/11 06:01:44;;;;;;;3.43;3.13;;;20.10;89.70;;;;;;5108982;27;20748;-77
2023/06/11 06:04:12;;;;;;;4.10;3.30;;;20.20;89.40;;;;;;5116597;27;20624;-78
2023/06/11 06:06:39;;;;;;;3.50;2.70;;;20.30;88.20;;;;;;5121743;27;20765;-77
2023/06/11 06:09:06;;;;;;;3.37;3.07;;;20.30;88.30;;;;;;5113168;27;20639;-78
2023/06/11 06:11:33;;;;;;;3.67;3.37;;;20.40;88.30;;;;;;5109059;28;20655;-77
2023/06/11 06:14:00;;;;;;;3.10;2.83;;;20.60;88.00;;;;;;5106722;28;20666;-77
2023/06/11 06:16:26;;;;;;;3.30;3.00;;;20.50;86.80;;;;;;5118615;28;20655;-78
2023/06/11 06:18:54;;;;;;;3.83;3.47;;;20.60;87.60;;;;;;5118163;27;20619;-78
2023/06/11 06:21:21;;;;;;;4.00;3.57;;;20.70;87.00;;;;;;5114591;28;20654;-77
2023/06/11 06:23:48;;;;;;;3.53;3.23;;;20.80;85.60;;;;;;5113617;28;21230;-77
2023/06/11 06:26:15;;;;;;;3.50;3.10;;;20.80;85.50;;;;;;5099655;28;21032;-78
2023/06/11 06:28:41;;;;;;;6.33;3.60;;;20.80;85.90;;;;;;5110773;28;20619;-78
2023/06/11 06:31:12;;;;;;;4.20;3.87;;;20.80;85.60;;;;;;5117474;28;21259;-78
2023/06/11 06:33:39;;;;;;;3.50;3.20;;;20.80;84.90;;;;;;5118224;28;20973;-78
2023/06/11 06:36:07;;;;;;;4.13;3.73;;;20.90;84.50;;;;;;5117788;28;20708;-78
2023/06/11 06:38:35;;;;;;;3.43;3.13;;;20.90;85.70;;;;;;5103646;27;21080;-81
2023/06/11 06:41:02;;;;;;;4.60;4.20;;;20.90;85.40;;;;;;5116004;27;20659;-76
2023/06/11 06:43:29;;;;;;;3.97;3.67;;;20.80;84.00;;;;;;5107475;27;20713;-80
2023/06/11 06:45:56;;;;;;;3.70;3.40;;;21.10;84.80;;;;;;5121742;27;20643;-79
2023/06/11 06:48:23;;;;;;;3.73;2.93;;;21.10;83.70;;;;;;5110476;27;20612;-77
2023/06/11 06:50:50;;;;;;;4.10;3.70;;;21.00;84.00;;;;;;5115250;27;20661;-78
2023/06/11 06:53:18;;;;;;;3.90;3.20;;;21.20;84.60;;;;;;5112871;27;20622;-77
2023/06/11 06:55:45;;;;;;;5.07;3.80;;;21.20;83.30;;;;;;5120353;27;21254;-77
2023/06/11 06:58:12;;;;;;;4.80;3.60;;;21.50;82.20;;;;;;5116957;27;20633;-77
2023/06/11 07:00:40;;;;;;;3.50;3.13;;;21.60;81.30;;;;;;5113850;27;20639;-77
2023/06/11 07:03:08;;;;;;;3.63;3.30;;;21.70;81.90;;;;;;5101129;27;20619;-76
2023/06/11 07:05:35;;;;;;;3.63;3.20;;;21.60;81.10;;;;;;5115025;27;20648;-78
2023/06/11 07:08:02;;;;;;;4.87;4.30;;;21.60;81.00;;;;;;5121247;27;20647;-78
2023/06/11 07:10:31;;;;;;;3.73;3.43;;;21.70;80.10;;;;;;5110179;27;20651;-77
2023/06/11 07:12:57;;;;;;;4.87;3.80;;;21.70;80.40;;;;;;5115316;27;20636;-75
2023/06/11 07:15:24;;;;;;;4.73;3.80;;;21.70;80.60;;;;;;5110422;27;20774;-72
2023/06/11 07:17:51;;;;;;;4.33;3.93;;;21.70;80.20;;;;;;5109214;27;20625;-72
2023/06/11 07:20:18;;;;;;;3.70;3.40;;;21.70;81.60;;;;;;5120914;27;20635;-72
2023/06/11 07:22:45;;;;;;;3.50;3.20;;;22.00;79.70;;;;;;5117087;27;20620;-73
2023/06/11 07:25:12;;;;;;;4.17;3.73;;;22.00;79.40;;;;;;5110196;27;20704;-73
2023/06/11 07:27:40;;;;;;;3.80;3.50;;;22.10;79.00;;;;;;5115619;27;20962;-75
2023/06/11 07:30:08;;;;;;;3.90;3.50;;;22.20;77.50;;;;;;5114460;27;20723;-73
2023/06/11 07:32:34;;;;;;;3.67;3.47;;;22.20;77.90;;;;;;5106451;27;20622;-75
2023/06/11 07:35:01;;;;;;;4.23;3.80;;;22.30;77.10;;;;;;5111787;27;20656;-72
2023/06/11 07:37:28;;;;;;;5.30;4.37;;;22.40;77.10;;;;;;5113439;27;20652;-72
2023/06/11 07:39:55;;;;;;;3.90;3.60;;;22.50;75.70;;;;;;5113001;27;20634;-72
2023/06/11 07:42:21;;;;;;;3.70;3.40;;;22.40;75.50;;;;;;5116332;27;20653;-72
2023/06/11 07:44:50;;;;;;;4.40;3.63;;;22.40;75.80;;;;;;5117801;27;20926;-72
2023/06/11 07:47:16;;;;;;;4.57;4.00;;;22.60;75.50;;;;;;5109161;27;21295;-72
2023/06/11 07:49:43;;;;;;;3.60;3.30;;;22.70;75.60;;;;;;5120754;27;20631;-72
2023/06/11 07:52:10;;;;;;;4.30;3.90;;;22.80;75.20;;;;;;5111957;27;20670;-72
2023/06/11 07:54:37;;;;;;;4.40;4.00;;;23.00;74.10;;;;;;5114464;27;20647;-73
2023/06/11 07:57:04;;;;;;;4.53;4.13;;;23.30;73.50;;;;;;5104730;27;20650;-72
2023/06/11 07:59:30;;;;;;;3.80;3.50;;;23.40;72.20;;;;;;5117451;27;20623;-72
2023/06/11 08:01:59;;;;;;;3.80;3.33;;;23.40;70.30;;;;;;5111921;27;20647;-72
2023/06/11 08:04:25;;;;;;;3.60;3.30;;;23.40;69.50;;;;;;5113295;27;20621;-72
2023/06/11 08:06:54;;;;;;;4.77;4.00;;;23.30;68.30;;;;;;5116368;27;21137;-72
2023/06/11 08:09:21;;;;;;;4.67;4.20;;;23.30;68.30;;;;;;5107347;27;20620;-72
2023/06/11 08:11:47;;;;;;;3.67;3.37;;;23.40;67.60;;;;;;5106942;27;20649;-72
2023/06/11 08:14:18;;;;;;;3.30;3.00;;;23.50;66.50;;;;;;5109651;27;20616;-72
2023/06/11 08:16:45;;;;;;;2.97;2.77;;;23.40;66.60;;;;;;5113164;27;21044;-72
2023/06/11 08:19:13;;;;;;;3.80;3.50;;;23.60;66.30;;;;;;5124704;27;20666;-72
2023/06/11 08:21:41;;;;;;;3.50;3.20;;;23.70;66.00;;;;;;5117955;27;21052;-72
2023/06/11 08:24:08;;;;;;;4.60;4.20;;;23.70;66.20;;;;;;5117505;27;20705;-73
2023/06/11 08:26:35;;;;;;;3.70;3.40;;;23.80;64.80;;;;;;5123415;27;20655;-72
2023/06/11 08:29:02;;;;;;;4.03;3.73;;;23.80;64.70;;;;;;5114885;27;20631;-72
2023/06/11 08:31:29;;;;;;;4.00;3.70;;;23.90;66.10;;;;;;5118192;27;21136;-72
2023/06/11 08:33:55;;;;;;;4.63;4.23;;;24.00;63.90;;;;;;5121721;27;20689;-72
2023/06/11 08:36:23;;;;;;;3.93;3.63;;;24.10;64.10;;;;;;5110305;27;20681;-72
2023/06/11 08:38:50;;;;;;;3.70;3.33;;;24.10;64.30;;;;;;5119854;27;20627;-72
2023/06/11 08:41:17;;;;;;;4.13;3.70;;;24.30;63.40;;;;;;5115966;27;21068;-72
2023/06/11 08:43:44;;;;;;;3.73;3.43;;;24.40;61.60;;;;;;5115427;27;20616;-72
2023/06/11 08:46:14;;;;;;;6.20;3.60;;;24.50;60.60;;;;;;5117040;27;20736;-72
2023/06/11 08:48:43;;;;;;;4.10;3.70;;;24.60;61.00;;;;;;5105197;27;20648;-72
2023/06/11 08:51:11;;;;;;;3.10;2.80;;;24.70;60.50;;;;;;5120081;27;20655;-72
2023/06/11 08:53:40;;;;;;;5.40;3.27;;;24.80;59.60;;;;;;5118962;27;20684;-72
2023/06/11 08:56:07;;;;;;;5.00;4.50;;;24.80;59.20;;;;;;5108780;27;20672;-72
2023/06/11 08:58:35;;;;;;;3.77;3.47;;;24.70;59.70;;;;;;5122111;27;20673;-72
2023/06/11 09:01:09;;;;;;;4.10;3.80;;;24.80;59.80;;;;;;5124311;27;20659;-72
2023/06/11 09:03:35;;;;;;;4.40;4.10;;;24.90;58.80;;;;;;5110038;27;20672;-72
2023/06/11 09:06:02;;;;;;;3.33;3.13;;;25.00;58.40;;;;;;5106770;27;20652;-72
2023/06/11 09:08:29;;;;;;;4.37;4.00;;;24.90;57.40;;;;;;5118680;27;20641;-72
2023/06/11 09:10:57;;;;;;;3.60;3.30;;;25.10;57.30;;;;;;5114595;27;20958;-72
2023/06/11 09:13:26;;;;;;;3.40;3.20;;;25.10;57.30;;;;;;5102778;27;20623;-72
2023/06/11 09:15:55;;;;;;;3.83;3.37;;;25.10;57.60;;;;;;5104428;27;21264;-72
2023/06/11 09:18:23;;;;;;;4.57;3.87;;;25.20;56.90;;;;;;5095484;27;20713;-72
2023/06/11 09:20:53;;;;;;;4.33;3.87;;;25.30;56.70;;;;;;5104056;27;20686;-72
2023/06/11 09:23:27;;;;;;;3.90;3.60;;;25.20;56.50;;;;;;5104973;27;20643;-72
2023/06/11 09:26:02;;;;;;;4.93;3.97;;;25.30;56.30;;;;;;5100682;27;20649;-72
2023/06/11 09:28:30;;;;;;;4.33;3.93;;;25.40;56.40;;;;;;5109016;27;20617;-72
2023/06/11 09:30:58;;;;;;;4.10;3.80;;;25.30;56.40;;;;;;5104896;27;20687;-72
2023/06/11 09:33:27;;;;;;;4.57;4.17;;;25.50;56.50;;;;;;5102823;27;20731;-72
2023/06/11 09:35:57;;;;;;;3.50;3.17;;;25.70;55.80;;;;;;5096868;27;20666;-72
2023/06/11 09:38:23;;;;;;;4.00;3.67;;;25.70;55.50;;;;;;5098644;28;21040;-73
2023/06/11 09:40:51;;;;;;;4.33;4.03;;;25.80;54.70;;;;;;5104537;27;20652;-72
2023/06/11 09:43:22;;;;;;;3.40;3.10;;;25.80;54.40;;;;;;5118371;27;20623;-73
2023/06/11 09:45:52;;;;;;;4.87;4.00;;;26.10;53.40;;;;;;5111999;27;21219;-72
2023/06/11 09:48:20;;;;;;;4.67;4.10;;;26.20;53.60;;;;;;5112685;27;20622;-72
2023/06/11 09:50:48;;;;;;;3.70;3.40;;;26.10;54.10;;;;;;5109106;27;20649;-72
2023/06/11 09:53:16;;;;;;;6.03;3.90;;;26.20;53.90;;;;;;5113909;28;21049;-72
2023/06/11 09:55:43;;;;;;;4.07;3.73;;;26.20;52.80;;;;;;5115982;28;20750;-72
2023/06/11 09:58:11;;;;;;;3.47;3.20;;;26.30;53.30;;;;;;5112766;28;20634;-72
2023/06/11 10:00:39;;;;;;;4.50;4.20;;;26.30;52.80;;;;;;5109979;28;20654;-72
2023/06/11 10:03:06;;;;;;;3.80;3.50;;;26.40;52.40;;;;;;5118570;28;20627;-73
2023/06/11 10:05:36;;;;;;;4.13;3.73;;;26.50;53.00;;;;;;5108067;28;21030;-72
2023/06/11 10:08:08;;;;;;;4.20;3.80;;;26.60;52.70;;;;;;5113199;28;20724;-72
2023/06/11 10:10:38;;;;;;;3.47;3.17;;;26.60;53.00;;;;;;5115424;28;21226;-72
2023/06/11 10:13:05;;;;;;;4.80;4.40;;;26.80;52.30;;;;;;5116179;28;20978;-72
2023/06/11 10:15:33;;;;;;;4.33;3.53;;;26.90;51.40;;;;;;5115627;27;20672;-72
2023/06/11 10:18:01;;;;;;;3.87;3.50;;;26.90;50.30;;;;;;5117710;27;20628;-72
2023/06/11 10:20:31;;;;;;;4.70;4.30;;;27.00;51.20;;;;;;5111395;27;20645;-72
2023/06/11 10:23:05;;;;;;;4.03;3.73;;;27.10;50.90;;;;;;5124259;27;20624;-72
2023/06/11 10:25:35;;;;;;;5.60;4.97;;;27.20;52.20;;;;;;5104871;27;20664;-72
2023/06/11 10:28:03;;;;;;;4.00;3.63;;;27.30;51.80;;;;;;5113385;27;20638;-72
2023/06/11 10:30:29;;;;;;;4.27;3.60;;;27.30;51.60;;;;;;5120341;27;20665;-72
2023/06/11 10:32:58;;;;;;;3.50;3.20;;;27.40;51.20;;;;;;5121876;27;20624;-73
2023/06/11 10:35:28;;;;;;;4.27;3.87;;;27.50;51.30;;;;;;5106966;27;20677;-72
2023/06/11 10:38:05;;;;;;;4.57;4.17;;;27.70;51.40;;;;;;5112039;27;20620;-72
2023/06/11 10:40:33;;;;;;;4.50;4.17;;;27.60;51.10;;;;;;5118388;27;20657;-72
2023/06/11 10:43:02;;;;;;;4.70;4.30;;;27.50;50.90;;;;;;5121030;27;20644;-72
2023/06/11 10:45:36;;;;;;;3.50;3.20;;;27.70;50.40;;;;;;5118815;27;20991;-72
2023/06/11 10:48:03;;;;;;;4.17;3.83;;;27.90;50.20;;;;;;5118362;27;20627;-72
2023/06/11 10:50:31;;;;;;;4.63;4.30;;;28.00;50.50;;;;;;5100149;27;20667;-72
2023/06/11 10:52:59;;;;;;;4.30;3.90;;;28.20;49.50;;;;;;5111661;27;20636;-72
2023/06/11 10:55:29;;;;;;;4.60;4.20;;;28.30;49.70;;;;;;5114431;27;20678;-72
2023/06/11 10:57:56;;;;;;;5.37;4.60;;;28.60;48.90;;;;;;5119314;27;20630;-73
2023/06/11 11:00:28;;;;;;;3.83;3.40;;;28.50;49.30;;;;;;5108236;27;21379;-72
2023/06/11 11:02:56;;;;;;;3.77;3.47;;;28.50;47.50;;;;;;5105678;27;20709;-72
2023/06/11 11:05:23;;;;;;;3.90;3.40;;;28.60;47.90;;;;;;5116731;27;20642;-72
2023/06/11 11:07:53;;;;;;;4.47;3.87;;;28.80;46.50;;;;;;5113914;27;20623;-72
2023/06/11 11:10:25;;;;;;;4.20;3.80;;;29.00;46.10;;;;;;5103023;27;20717;-73
2023/06/11 11:12:53;;;;;;;4.90;4.47;;;29.30;46.50;;;;;;5114501;27;20628;-72
2023/06/11 11:15:20;;;;;;;3.80;3.50;;;29.30;45.90;;;;;;5107408;27;21234;-72
2023/06/11 11:17:48;;;;;;;3.97;3.67;;;29.50;46.30;;;;;;5111290;27;20724;-72
2023/06/11 11:20:18;;;;;;;3.40;3.10;;;29.50;45.60;;;;;;5120241;27;20649;-72
2023/06/11 11:22:48;;;;;;;4.10;3.70;;;29.60;46.10;;;;;;5117338;27;20636;-72
2023/06/11 11:25:18;;;;;;;4.10;3.80;;;29.80;45.70;;;;;;5119079;27;20611;-73
2023/06/11 11:27:46;;;;;;;4.20;3.80;;;30.20;46.00;;;;;;5113727;27;20683;-73
2023/06/11 11:30:13;;;;;;;4.03;3.73;;;30.40;45.50;;;;;;5120588;27;20661;-73
2023/06/11 11:32:40;;;;;;;4.07;3.77;;;30.40;45.70;;;;;;5115020;27;20631;-74
2023/06/11 11:35:08;;;;;;;5.60;4.43;;;30.50;44.80;;;;;;5107144;27;20688;-73
2023/06/11 11:37:35;;;;;;;3.90;3.60;;;30.90;45.50;;;;;;5120182;27;21289;-73
2023/06/11 11:40:06;;;;;;;4.20;3.90;;;31.10;43.80;;;;;;5111017;27;20812;-73
2023/06/11 11:42:45;;;;;;;4.70;4.00;;;31.30;44.10;;;;;;5111426;27;21242;-74
2023/06/11 11:45:13;;;;;;;3.87;3.57;;;31.70;44.60;;;;;;5120291;27;20718;-74
2023/06/11 11:47:41;;;;;;;4.90;3.37;;;31.60;43.40;;;;;;5120640;27;20619;-74
2023/06/11 11:50:19;;;;;;;4.20;3.70;;;31.90;43.00;;;;;;5110573;27;20751;-75
2023/06/11 11:52:58;;;;;;;4.97;4.67;;;32.40;41.40;;;;;;5113670;27;20642;-75
2023/06/11 11:55:25;;;;;;;4.17;3.87;;;32.90;41.30;;;;;;5110313;27;20654;-75
2023/06/11 11:58:03;;;;;;;4.27;3.97;;;33.30;41.60;;;;;;5110795;27;20638;-75
2023/06/11 12:00:30;;;;;;;4.17;3.87;;;33.80;40.40;;;;;;5113613;27;21003;-75
2023/06/11 12:02:57;;;;;;;4.03;3.67;;;34.30;39.70;;;;;;5106993;27;20717;-75
2023/06/11 12:05:28;;;;;;;4.00;3.70;;;33.70;40.80;;;;;;5105481;27;20651;-75
2023/06/11 12:07:55;;;;;;;3.40;3.10;;;34.50;39.60;;;;;;5102236;27;20666;-75
2023/06/11 12:10:24;;;;;;;4.43;4.10;;;35.40;38.10;;;;;;5113843;27;21231;-75
2023/06/11 12:12:52;;;;;;;4.10;3.80;;;36.10;37.00;;;;;;5109764;27;21030;-75
2023/06/11 12:15:19;;;;;;;3.97;3.67;;;36.60;36.70;;;;;;5119198;27;21057;-75
2023/06/11 12:17:46;;;;;;;3.97;3.60;;;36.70;36.40;;;;;;5117883;27;20197;-75
2023/06/11 12:20:13;;;;;;;3.97;3.67;;;37.00;35.80;;;;;;5104283;27;20215;-74
2023/06/11 12:22:40;;;;;;;3.57;3.27;;;37.60;35.00;;;;;;5113139;27;20196;-74
2023/06/11 12:25:07;;;;;;;4.32;4.03;;;37.80;35.00;;;;;;5106250;27;20194;-75
2023/06/11 12:27:35;;;;;;;3.70;3.40;;;37.70;33.90;;;;;;5103859;27;20225;-73
2023/06/11 12:30:04;;;;;;;3.67;3.45;;;38.10;33.60;;;;;;5094312;27;20401;-74
2023/06/11 12:32:31;;;;;;;3.67;3.47;;;38.50;33.70;;;;;;5101877;27;20208;-73
2023/06/11 12:34:57;;;;;;;4.18;3.88;;;38.10;33.50;;;;;;5101555;27;20280;-73
2023/06/11 12:37:25;;;;;;;4.45;4.07;;;38.20;33.70;;;;;;5095400;27;20598;-73
2023/06/11 12:39:52;;;;;;;3.45;3.25;;;38.60;33.90;;;;;;5100206;27;20607;-73
2023/06/11 12:42:20;;;;;;;3.72;3.45;;;38.60;33.10;;;;;;5096515;27;20222;-73
2023/06/11 12:44:47;;;;;;;4.28;3.97;;;38.80;32.80;;;;;;5100484;27;20194;-73
2023/06/11 12:47:15;;;;;;;3.45;3.15;;;38.80;33.00;;;;;;5099470;27;20337;-73
2023/06/11 12:49:42;;;;;;;3.70;3.40;;;38.50;33.00;;;;;;5098630;27;20202;-73
2023/06/11 12:52:10;;;;;;;4.05;3.75;;;38.80;32.00;;;;;;5103232;27;20253;-73